createdAt,value
2024-03-08T00:00:06.975Z,2.80
2024-03-08T00:05:10.777Z,3.00
2024-03-08T00:10:15.576Z,3.65
2024-03-08T00:15:20.826Z,5.68
2024-03-08T00:20:24.106Z,4.05
2024-03-08T00:25:27.406Z,4.40
2024-03-08T00:30:32.161Z,5.18
2024-03-08T00:35:35.195Z,5.18
2024-03-08T00:40:38.218Z,4.70
2024-03-08T00:45:42.799Z,4.85
2024-03-08T00:50:46.065Z,4.32
2024-03-08T00:55:49.138Z,4.15
2024-03-08T01:00:53.883Z,4.25
2024-03-08T01:05:56.982Z,4.10
2024-03-08T01:11:00.190Z,3.97
2024-03-08T01:16:05.568Z,4.05
2024-03-08T01:21:08.669Z,4.45
2024-03-08T01:26:11.980Z,4.28
2024-03-08T01:31:16.606Z,3.30
2024-03-08T01:36:19.608Z,4.82
2024-03-08T01:41:22.666Z,4.57
2024-03-08T01:46:27.518Z,4.00
2024-03-08T01:51:31.954Z,5.30
2024-03-08T01:56:35.399Z,5.07
2024-03-08T02:01:40.102Z,5.13
2024-03-08T02:06:43.100Z,5.13
2024-03-08T02:11:47.303Z,4.63
2024-03-08T02:16:52.158Z,4.40
2024-03-08T02:21:57.606Z,4.30
2024-03-08T02:27:00.772Z,4.30
2024-03-08T02:32:04.057Z,4.05
2024-03-08T02:37:08.654Z,3.67
2024-03-08T02:42:11.931Z,3.80
2024-03-08T02:47:14.958Z,3.03
2024-03-08T02:52:19.543Z,3.30
2024-03-08T02:57:22.571Z,3.30
2024-03-08T03:02:25.580Z,3.40
2024-03-08T03:07:30.197Z,3.35
2024-03-08T03:12:33.956Z,2.42
2024-03-08T03:17:37.133Z,2.75
2024-03-08T03:22:42.184Z,3.25
2024-03-08T03:27:45.195Z,1.95
2024-03-08T03:32:48.625Z,1.40
2024-03-08T03:37:53.537Z,2.13
2024-03-08T03:42:56.724Z,2.28
2024-03-08T03:48:04.487Z,2.13
2024-03-08T03:53:11.210Z,1.90
2024-03-08T03:58:14.851Z,1.13
2024-03-08T04:03:17.957Z,1.60
2024-03-08T04:08:22.637Z,1.50
2024-03-08T04:13:25.672Z,1.35
2024-03-08T04:18:28.922Z,1.27
2024-03-08T04:23:33.541Z,1.95
2024-03-08T04:28:36.610Z,3.15
2024-03-08T04:33:39.723Z,1.67
2024-03-08T04:38:44.570Z,1.83
2024-03-08T04:43:47.704Z,1.02
2024-03-08T04:48:50.987Z,2.67
2024-03-08T04:53:55.876Z,1.92
2024-03-08T04:58:58.942Z,1.92
2024-03-08T05:04:05.104Z,1.85
2024-03-08T05:09:11.259Z,1.65
2024-03-08T05:14:15.174Z,1.83
2024-03-08T05:19:18.579Z,2.47
2024-03-08T05:24:23.216Z,2.50
2024-03-08T05:29:26.610Z,1.85
2024-03-08T05:34:29.659Z,1.60
2024-03-08T05:39:34.585Z,2.10
2024-03-08T05:44:37.836Z,1.45
2024-03-08T05:49:41.036Z,1.52
2024-03-08T05:54:45.654Z,1.83
2024-03-08T05:59:48.734Z,1.83
2024-03-08T06:04:51.839Z,1.65
2024-03-08T06:09:56.443Z,1.55
2024-03-08T06:14:59.637Z,1.40
2024-03-08T06:20:02.804Z,1.77
2024-03-08T06:25:08.260Z,1.67
2024-03-08T06:30:12.478Z,1.42
2024-03-08T06:35:15.728Z,1.30
2024-03-08T06:40:20.391Z,1.52
2024-03-08T06:45:23.446Z,1.50
2024-03-08T06:50:26.476Z,1.40
2024-03-08T06:55:31.070Z,1.65
2024-03-08T07:00:34.410Z,1.42
2024-03-08T07:05:37.491Z,1.80
2024-03-08T07:10:42.149Z,1.25
2024-03-08T07:15:45.526Z,1.58
2024-03-08T07:20:48.588Z,1.65
2024-03-08T07:25:53.497Z,1.20
2024-03-08T07:30:56.538Z,1.60
2024-03-08T07:41:05.799Z,1.60
2024-03-08T07:46:09.186Z,1.65
2024-03-08T07:51:12.549Z,1.20
2024-03-08T07:56:17.173Z,1.40
2024-03-08T08:01:20.586Z,1.88
2024-03-08T08:06:23.719Z,1.35
2024-03-08T08:11:30.231Z,1.70
2024-03-08T08:16:33.269Z,1.58
2024-03-08T08:26:41.230Z,1.58
2024-03-08T08:31:44.338Z,1.83
2024-03-08T08:36:47.391Z,1.52
2024-03-08T08:41:53.724Z,1.33
2024-03-08T08:47:03.082Z,1.60
2024-03-08T08:52:16.978Z,1.10
2024-03-08T08:57:22.547Z,1.00
2024-03-08T09:02:25.631Z,1.38
2024-03-08T09:12:33.098Z,1.08
2024-03-08T09:17:36.183Z,1.17
2024-03-08T09:27:43.594Z,1.60
2024-03-08T09:32:46.653Z,1.00
2024-03-08T09:42:54.123Z,1.17
2024-03-08T09:47:57.273Z,1.20
2024-03-08T09:53:00.461Z,1.63
2024-03-08T09:58:07.734Z,1.83
2024-03-08T10:03:12.907Z,1.45
2024-03-08T10:08:17.263Z,1.33
2024-03-08T10:13:22.401Z,1.48
2024-03-08T10:18:25.590Z,1.30
2024-03-08T10:28:32.781Z,1.60
2024-03-08T10:33:35.915Z,1.27
2024-03-08T10:44:06.503Z,1.90
2024-03-08T10:49:17.985Z,1.58
2024-03-08T10:54:22.076Z,1.40
2024-03-08T10:59:29.114Z,1.67
2024-03-08T11:04:33.085Z,1.42
2024-03-08T11:09:38.404Z,1.52
2024-03-08T11:14:49.984Z,1.95
2024-03-08T11:19:53.511Z,1.88
2024-03-08T11:25:00.803Z,1.85
2024-03-08T11:30:07.105Z,1.63
2024-03-08T11:35:20.419Z,1.80
2024-03-08T11:40:23.763Z,1.77
2024-03-08T11:45:28.487Z,1.80
2024-03-08T11:50:32.195Z,1.95
2024-03-08T11:55:35.644Z,1.70
2024-03-08T12:00:40.386Z,1.88
2024-03-08T12:05:43.466Z,1.75
2024-03-08T12:10:46.600Z,1.90
2024-03-08T12:15:52.711Z,1.70
2024-03-08T12:21:06.681Z,1.60
2024-03-08T12:26:13.776Z,1.90
2024-03-08T12:31:18.830Z,1.77
2024-03-08T12:36:22.747Z,1.73
2024-03-08T12:41:26.102Z,1.92
2024-03-08T12:46:30.735Z,1.60
2024-03-08T12:51:33.749Z,1.50
2024-03-08T12:56:37.637Z,1.48
2024-03-08T13:01:42.391Z,1.70
2024-03-08T13:06:45.470Z,1.67
2024-03-08T13:11:48.590Z,1.52
2024-03-08T13:16:53.308Z,1.60
2024-03-08T13:21:56.712Z,1.27
2024-03-08T13:27:00.089Z,1.40
2024-03-08T13:32:05.198Z,1.63
2024-03-08T13:37:08.527Z,1.52
2024-03-08T13:47:17.078Z,1.60
2024-03-08T13:52:20.280Z,1.98
2024-03-08T14:02:27.405Z,2.00
2024-03-08T14:07:30.512Z,1.85
2024-03-08T14:12:33.653Z,1.52
2024-03-08T14:17:38.270Z,1.77
2024-03-08T14:22:41.337Z,2.17
2024-03-08T14:27:45.052Z,1.63
2024-03-08T14:32:49.695Z,2.08
2024-03-08T14:37:52.896Z,1.33
2024-03-08T14:48:00.138Z,1.20
2024-03-08T14:53:03.223Z,1.45
2024-03-08T14:58:06.455Z,0.93
2024-03-08T15:03:11.078Z,1.27
2024-03-08T15:08:14.114Z,0.93
2024-03-08T15:13:17.311Z,1.20
2024-03-08T15:23:24.434Z,0.80
2024-03-08T15:28:27.653Z,0.93
2024-03-08T15:38:37.088Z,1.10
2024-03-08T15:43:40.718Z,1.02
2024-03-08T15:48:45.769Z,1.25
2024-03-08T15:53:48.785Z,1.20
2024-03-08T15:58:51.941Z,1.40
2024-03-08T16:03:56.902Z,0.60
2024-03-08T16:08:59.915Z,0.93
2024-03-08T16:14:03.080Z,0.95
2024-03-08T16:24:10.159Z,1.25
2024-03-08T16:29:13.233Z,1.27
2024-03-08T16:34:18.117Z,1.17
2024-03-08T16:39:21.212Z,1.10
2024-03-08T16:44:24.386Z,0.90
2024-03-08T16:54:39.709Z,1.52
2024-03-08T16:59:50.620Z,1.65
2024-03-08T17:04:56.129Z,1.40
2024-03-08T17:09:59.331Z,1.00
2024-03-08T17:15:02.364Z,1.30
2024-03-08T17:20:08.405Z,1.80
2024-03-08T17:25:11.843Z,1.33
2024-03-08T17:30:15.059Z,1.70
2024-03-08T17:35:20.083Z,1.30
2024-03-08T17:40:24.620Z,1.42
2024-03-08T17:45:28.146Z,1.63
2024-03-08T17:50:32.932Z,1.48
2024-03-08T17:55:38.582Z,1.33
2024-03-08T18:00:43.272Z,1.70
2024-03-08T18:05:47.847Z,1.15
2024-03-08T18:10:51.026Z,1.52
2024-03-08T18:15:54.129Z,1.40
2024-03-08T18:20:58.885Z,1.58
2024-03-08T18:26:02.056Z,1.30
2024-03-08T18:31:05.559Z,1.35
2024-03-08T18:36:10.495Z,1.48
2024-03-08T18:41:13.867Z,1.42
2024-03-08T18:46:16.926Z,1.23
2024-03-08T18:56:24.245Z,1.48
2024-03-08T19:01:27.384Z,1.50
2024-03-08T19:06:32.033Z,1.60
2024-03-08T19:11:35.210Z,1.63
2024-03-08T19:16:38.598Z,1.67
2024-03-08T19:21:43.277Z,1.70
2024-03-08T19:26:47.910Z,1.77
2024-03-08T19:31:52.671Z,1.63
2024-03-08T19:36:57.344Z,1.58
2024-03-08T19:42:00.343Z,1.23
2024-03-08T19:47:03.394Z,1.33
2024-03-08T19:52:08.040Z,1.45
2024-03-08T19:57:11.019Z,1.60
2024-03-08T20:02:14.128Z,1.42
2024-03-08T20:07:18.821Z,1.10
2024-03-08T20:12:21.883Z,1.20
2024-03-08T20:17:25.212Z,1.02
2024-03-08T20:22:29.796Z,1.30
2024-03-08T20:27:33.085Z,1.20
2024-03-08T20:32:36.194Z,1.27
2024-03-08T20:37:43.396Z,0.90
2024-03-08T20:42:46.413Z,1.02
2024-03-08T20:47:49.868Z,1.30
2024-03-08T20:52:54.667Z,1.05
2024-03-08T20:57:57.716Z,1.10
2024-03-08T21:03:00.815Z,0.95
2024-03-08T21:08:05.782Z,1.30
2024-03-08T21:13:10.180Z,0.80
2024-03-08T21:18:13.266Z,1.10
2024-03-08T21:23:18.163Z,0.80
2024-03-08T21:28:21.184Z,1.02
2024-03-08T21:33:24.468Z,0.85
2024-03-08T21:38:29.074Z,0.80
2024-03-08T21:43:32.174Z,0.93
2024-03-08T21:48:35.216Z,0.90
2024-03-08T21:53:39.791Z,1.13
2024-03-08T21:58:42.944Z,1.10
2024-03-08T22:03:46.114Z,0.80
2024-03-08T22:08:50.707Z,1.10
2024-03-08T22:13:53.802Z,1.05
2024-03-08T22:18:56.825Z,0.90
2024-03-08T22:24:01.410Z,1.00
2024-03-08T22:29:04.583Z,1.00
2024-03-08T22:34:07.728Z,0.85
2024-03-08T22:39:12.326Z,0.80
2024-03-08T22:44:15.441Z,0.90
2024-03-08T22:49:18.527Z,1.30
2024-03-08T22:54:23.132Z,1.13
2024-03-08T22:59:26.268Z,1.33
2024-03-08T23:04:29.357Z,1.02
2024-03-08T23:09:34.134Z,0.93
2024-03-08T23:14:37.232Z,1.00
2024-03-08T23:19:42.830Z,0.75
2024-03-08T23:24:47.512Z,0.52
2024-03-08T23:29:50.503Z,1.50
2024-03-08T23:34:53.570Z,0.85
2024-03-08T23:39:58.223Z,0.63
2024-03-08T23:45:01.256Z,0.80
2024-03-08T23:50:04.568Z,1.08
2024-03-08T23:55:10.024Z,0.93
